createdAt,value
2016-05-23T00:00:47.919Z,59.2
2016-05-23T00:01:47.968Z,59.14
2016-05-23T00:02:48.034Z,59.04
2016-05-23T00:03:48.083Z,59.23
2016-05-23T00:04:48.117Z,59.04
2016-05-23T00:05:48.183Z,59.04
2016-05-23T00:06:48.231Z,58.95
2016-05-23T00:07:48.266Z,59.04
2016-05-23T00:08:48.331Z,58.85
2016-05-23T00:09:48.381Z,59.23
2016-05-23T00:10:48.430Z,59.23
2016-05-23T00:11:48.480Z,59.23
2016-05-23T00:12:48.545Z,59.33
2016-05-23T00:13:48.594Z,59.23
2016-05-23T00:14:48.643Z,59.52
2016-05-23T00:15:48.709Z,60
2016-05-23T00:16:48.759Z,59.43
2016-05-23T00:17:48.808Z,59.81
2016-05-23T00:18:48.873Z,59.91
2016-05-23T00:19:48.908Z,59.23
2016-05-23T00:20:48.957Z,59.3
2016-05-23T00:21:49.038Z,59.23
2016-05-23T00:22:49.071Z,59.04
2016-05-23T00:23:49.122Z,59.33
2016-05-23T00:24:49.015Z,59.62
2016-05-23T00:25:49.236Z,59.62
2016-05-23T00:26:49.271Z,59.33
2016-05-23T00:27:49.334Z,60.1
2016-05-23T00:28:49.213Z,59.81
2016-05-23T00:29:49.309Z,59.91
2016-05-23T00:30:49.484Z,59.91
2016-05-23T00:31:49.378Z,59.91
2016-05-23T00:32:49.442Z,59.91
2016-05-23T00:33:49.633Z,59.81
2016-05-23T00:34:49.698Z,60
2016-05-23T00:35:49.747Z,59.62
2016-05-23T00:36:49.812Z,59.91
2016-05-23T00:37:49.847Z,59.69
2016-05-23T00:38:49.912Z,59.81
2016-05-23T00:39:49.977Z,59.72
2016-05-23T00:40:50.027Z,59.91
2016-05-23T00:41:50.060Z,59.62
2016-05-23T00:42:49.953Z,59.81
2016-05-23T00:43:50.160Z,60.1
2016-05-23T00:44:50.225Z,59.91
2016-05-23T00:45:50.274Z,59.52
2016-05-23T00:46:50.324Z,59.91
2016-05-23T00:47:50.389Z,59.69
2016-05-23T00:48:50.423Z,59.43
2016-05-23T00:49:50.488Z,59.91
2016-05-23T00:50:50.538Z,59.72
2016-05-23T00:51:50.588Z,59.62
2016-05-23T00:52:50.637Z,59.72
2016-05-23T00:53:50.686Z,59.52
2016-05-23T00:54:50.580Z,59.72
2016-05-23T00:55:50.801Z,59.62
2016-05-23T00:56:50.834Z,59.72
2016-05-23T00:57:50.901Z,59.81
2016-05-23T00:58:50.793Z,59.91
2016-05-23T00:59:50.859Z,59.72
2016-05-23T01:00:51.064Z,59.72
2016-05-23T01:01:51.115Z,59.81
2016-05-23T01:02:51.164Z,59.72
2016-05-23T01:03:51.213Z,59.72
2016-05-23T01:04:51.279Z,59.81
2016-05-23T01:05:51.172Z,59.81
2016-05-23T01:06:51.378Z,60
2016-05-23T01:07:51.427Z,60
2016-05-23T01:08:51.461Z,60.1
2016-05-23T01:09:51.526Z,59.91
2016-05-23T01:10:51.575Z,60
2016-05-23T01:11:51.625Z,60
2016-05-23T01:12:51.691Z,60.2
2016-05-23T01:13:51.741Z,60.39
2016-05-23T01:14:51.618Z,59.88
2016-05-23T01:15:51.839Z,59.97
2016-05-23T01:16:51.889Z,59.78
2016-05-23T01:17:51.954Z,60.07
2016-05-23T01:18:52.004Z,60.07
2016-05-23T01:19:51.897Z,59.91
2016-05-23T01:20:52.119Z,59.91
2016-05-23T01:21:52.152Z,60.07
2016-05-23T01:22:52.046Z,60.3
2016-05-23T01:23:52.267Z,60.55
2016-05-23T01:24:52.316Z,60.27
2016-05-23T01:25:52.351Z,60.17
2016-05-23T01:26:52.415Z,60.55
2016-05-23T01:27:52.466Z,60.36
2016-05-23T01:28:52.531Z,60.27
2016-05-23T01:29:52.579Z,60.84
2016-05-23T01:30:52.629Z,60.84
2016-05-23T01:31:52.695Z,60.49
2016-05-23T01:32:52.573Z,60.46
2016-05-23T01:33:52.778Z,60.55
2016-05-23T01:34:52.828Z,60.27
2016-05-23T01:35:52.893Z,60.27
2016-05-23T01:36:52.770Z,60.77
2016-05-23T01:37:52.992Z,60.77
2016-05-23T01:38:53.041Z,60.36
2016-05-23T01:39:52.936Z,60.75
2016-05-23T01:40:53.141Z,60.75
2016-05-23T01:41:53.222Z,60.77
2016-05-23T01:42:53.256Z,60.55
2016-05-23T01:43:53.305Z,60.65
2016-05-23T01:44:53.370Z,60.36
2016-05-23T01:45:53.405Z,60.55
2016-05-23T01:46:53.469Z,60.65
2016-05-23T01:47:53.519Z,60.55
2016-05-23T01:48:53.569Z,60.75
2016-05-23T01:49:53.618Z,60.68
2016-05-23T01:50:53.668Z,60.75
2016-05-23T01:51:53.702Z,60.3
2016-05-23T01:52:53.766Z,60.49
2016-05-23T01:53:53.832Z,60.75
2016-05-23T01:54:53.882Z,60.75
2016-05-23T01:55:53.932Z,60.84
2016-05-23T01:56:53.996Z,60.55
2016-05-23T01:57:54.030Z,60.84
2016-05-23T01:58:54.080Z,60.58
2016-05-23T01:59:54.239Z,60.46
2016-05-23T02:00:54.179Z,60.65
2016-05-23T02:01:54.244Z,60.55
2016-05-23T02:02:54.294Z,60.68
2016-05-23T02:03:54.343Z,60.46
2016-05-23T02:04:54.236Z,60.55
2016-05-23T02:05:54.474Z,60.46
2016-05-23T02:06:54.351Z,60.55
2016-05-23T02:07:54.556Z,60.55
2016-05-23T02:08:54.623Z,60.46
2016-05-23T02:09:54.501Z,60.55
2016-05-23T02:10:54.722Z,60.46
2016-05-23T02:11:54.787Z,60.17
2016-05-23T02:12:54.836Z,60.75
2016-05-23T02:13:54.869Z,60.55
2016-05-23T02:14:54.936Z,60.55
2016-05-23T02:15:54.969Z,60.55
2016-05-23T02:16:55.035Z,60.07
2016-05-23T02:17:55.083Z,60.07
2016-05-23T02:18:55.149Z,60.27
2016-05-23T02:19:55.168Z,60.36
2016-05-23T02:20:55.092Z,59.88
2016-05-23T02:21:55.299Z,59.88
2016-05-23T02:22:55.332Z,60.27
2016-05-23T02:23:55.397Z,60.27
2016-05-23T02:24:55.447Z,60.27
2016-05-23T02:25:55.480Z,59.88
2016-05-23T02:26:55.405Z,59.97
2016-05-23T02:27:55.611Z,59.88
2016-05-23T02:28:55.645Z,60.07
2016-05-23T02:29:55.726Z,60.07
2016-05-23T02:30:55.619Z,59.97
2016-05-23T02:31:55.809Z,59.88
2016-05-23T02:32:55.860Z,60.17
2016-05-23T02:33:55.940Z,60.17
2016-05-23T02:34:55.959Z,60.07
2016-05-23T02:35:56.039Z,59.97
2016-05-23T02:36:56.056Z,59.97
2016-05-23T02:37:55.967Z,59.69
2016-05-23T02:38:56.031Z,59.49
2016-05-23T02:39:56.222Z,59.88
2016-05-23T02:40:56.286Z,59.88
2016-05-23T02:41:56.337Z,59.69
2016-05-23T02:42:56.370Z,59.59
2016-05-23T02:43:56.936Z,59.78
2016-05-23T02:44:57.047Z,59.59
2016-05-23T02:45:56.550Z,59.59
2016-05-23T02:46:56.584Z,59.88
2016-05-23T02:47:56.664Z,59.78
2016-05-23T02:48:56.683Z,59.4
2016-05-23T02:49:56.592Z,59.78
2016-05-23T02:50:56.798Z,59.69
2016-05-23T02:51:56.847Z,60.17
2016-05-23T02:52:56.913Z,59.88
2016-05-23T02:53:56.962Z,59.88
2016-05-23T02:54:57.012Z,59.97
2016-05-23T02:55:57.077Z,59.88
2016-05-23T02:56:57.127Z,59.78
2016-05-23T02:57:57.161Z,59.59
2016-05-23T02:58:57.085Z,59.78
2016-05-23T02:59:57.290Z,59.78
2016-05-23T03:00:57.324Z,60.07
2016-05-23T03:01:57.374Z,59.69
2016-05-23T03:02:57.424Z,59.69
2016-05-23T03:03:57.504Z,59.78
2016-05-23T03:04:57.539Z,59.88
2016-05-23T03:05:57.572Z,59.88
2016-05-23T03:06:57.653Z,59.78
2016-05-23T03:07:57.703Z,59.78
2016-05-23T03:08:57.737Z,59.49
2016-05-23T03:09:57.817Z,60.07
2016-05-23T03:10:57.867Z,59.49
2016-05-23T03:11:57.886Z,59.49
2016-05-23T03:12:57.951Z,59.2
2016-05-23T03:13:58.000Z,59.4
2016-05-23T03:14:58.081Z,59.2
2016-05-23T03:15:58.115Z,59.2
2016-05-23T03:16:58.165Z,59.01
2016-05-23T03:17:58.230Z,59.2
2016-05-23T03:18:58.279Z,59.2
2016-05-23T03:19:58.314Z,59.11
2016-05-23T03:20:58.378Z,59.3
2016-05-23T03:21:58.444Z,59.01
2016-05-23T03:22:58.463Z,59.2
2016-05-23T03:23:58.527Z,59.3
2016-05-23T03:24:58.593Z,59.3
2016-05-23T03:25:58.627Z,59.3
2016-05-23T03:26:58.692Z,59.2
2016-05-23T03:27:58.726Z,59.11
2016-05-23T03:28:58.790Z,59.2
2016-05-23T03:29:58.699Z,59.01
2016-05-23T03:30:58.890Z,59.01
2016-05-23T03:31:58.940Z,59.2
2016-05-23T03:32:58.864Z,59.11
2016-05-23T03:33:59.038Z,59.11
2016-05-23T03:34:59.103Z,58.92
2016-05-23T03:35:59.013Z,58.92
2016-05-23T03:36:59.218Z,59.11
2016-05-23T03:37:59.253Z,59.59
2016-05-23T03:38:59.317Z,59.01
2016-05-23T03:39:59.398Z,58.72
2016-05-23T03:40:59.417Z,58.82
2016-05-23T03:41:59.482Z,58.92
2016-05-23T03:42:59.531Z,58.92
2016-05-23T03:43:59.878Z,58.92
2016-05-23T03:45:00.162Z,59.4
2016-05-23T03:45:59.695Z,58.92
2016-05-23T03:46:59.714Z,59.2
2016-05-23T03:47:59.794Z,59.11
2016-05-23T03:48:59.845Z,59.11
2016-05-23T03:49:59.878Z,58.92
2016-05-23T03:50:59.928Z,59.4
2016-05-23T03:52:00.009Z,58.72
2016-05-23T03:53:00.043Z,58.72
2016-05-23T03:54:00.108Z,58.72
2016-05-23T03:55:00.142Z,58.92
2016-05-23T03:56:00.192Z,58.72
2016-05-23T03:57:00.257Z,59.01
2016-05-23T03:58:00.322Z,59.01
2016-05-23T03:59:00.371Z,59.3
2016-05-23T04:00:00.483Z,59.11
2016-05-23T04:01:00.471Z,59.01
2016-05-23T04:02:00.520Z,59.01
2016-05-23T04:03:00.570Z,58.92
2016-05-23T04:04:00.635Z,59.01
2016-05-23T04:05:00.669Z,58.92
2016-05-23T04:06:00.718Z,58.92
2016-05-23T04:07:00.768Z,59.01
2016-05-23T04:08:00.849Z,58.82
2016-05-23T04:09:00.883Z,58.82
2016-05-23T04:10:00.932Z,59.11
2016-05-23T04:11:00.998Z,58.53
2016-05-23T04:12:01.047Z,59.01
2016-05-23T04:13:01.081Z,59.01
2016-05-23T04:14:01.146Z,58.92
2016-05-23T04:15:01.415Z,58.72
2016-05-23T04:16:01.230Z,58.63
2016-05-23T04:17:01.295Z,58.72
2016-05-23T04:18:01.329Z,58.82
2016-05-23T04:19:01.409Z,58.82
2016-05-23T04:20:01.303Z,58.82
2016-05-23T04:21:01.494Z,58.82
2016-05-23T04:22:01.574Z,58.53
2016-05-23T04:23:01.639Z,58.72
2016-05-23T04:24:01.658Z,58.72
2016-05-23T04:25:01.722Z,58.53
2016-05-23T04:26:01.788Z,58.53
2016-05-23T04:27:01.806Z,58.53
2016-05-23T04:28:01.872Z,58.53
2016-05-23T04:29:01.936Z,58.72
2016-05-23T04:30:01.814Z,58.82
2016-05-23T04:31:02.035Z,58.82
2016-05-23T04:32:02.069Z,58.72
2016-05-23T04:33:02.134Z,58.63
2016-05-23T04:34:02.184Z,58.53
2016-05-23T04:35:02.234Z,58.53
2016-05-23T04:36:02.284Z,58.72
2016-05-23T04:37:02.349Z,58.63
2016-05-23T04:38:02.398Z,58.72
2016-05-23T04:39:02.448Z,58.72
2016-05-23T04:40:02.513Z,58.72
2016-05-23T04:41:02.562Z,58.63
2016-05-23T04:42:02.612Z,58.63
2016-05-23T04:43:02.662Z,58.92
2016-05-23T04:44:02.712Z,58.72
2016-05-23T04:45:02.776Z,58.24
2016-05-23T04:46:02.795Z,58.82
2016-05-23T04:47:02.860Z,58.82
2016-05-23T04:48:02.925Z,58.34
2016-05-23T04:49:03.022Z,58.53
2016-05-23T04:50:03.009Z,58.53
2016-05-23T04:51:03.090Z,58.53
2016-05-23T04:52:03.124Z,58.53
2016-05-23T04:53:03.016Z,58.15
2016-05-23T04:54:03.254Z,59.2
2016-05-23T04:55:03.303Z,58.34
2016-05-23T04:56:03.338Z,58.63
2016-05-23T04:57:03.231Z,58.82
2016-05-23T04:58:03.422Z,58.63
2016-05-23T04:59:03.502Z,58.53
2016-05-23T05:00:03.941Z,59.2
2016-05-23T05:01:03.586Z,58.63
2016-05-23T05:02:03.666Z,58.63
2016-05-23T05:03:03.716Z,58.63
2016-05-23T05:04:03.749Z,59.3
2016-05-23T05:05:03.846Z,58.53
2016-05-23T05:06:03.865Z,58.53
2016-05-23T05:07:03.899Z,58.53
2016-05-23T05:08:03.979Z,58.63
2016-05-23T05:09:04.013Z,58.53
2016-05-23T05:10:04.063Z,58.44
2016-05-23T05:11:03.971Z,58.63
2016-05-23T05:12:04.162Z,58.63
2016-05-23T05:13:04.212Z,58.53
2016-05-23T05:14:04.276Z,58.63
2016-05-23T05:15:04.389Z,58.53
2016-05-23T05:16:04.359Z,58.53
2016-05-23T05:17:04.441Z,58.82
2016-05-23T05:18:04.475Z,58.53
2016-05-23T05:19:04.525Z,59.01
2016-05-23T05:20:04.605Z,58.72
2016-05-23T05:21:04.656Z,58.72
2016-05-23T05:22:04.689Z,58.92
2016-05-23T05:23:04.769Z,58.72
2016-05-23T05:24:04.804Z,58.82
2016-05-23T05:25:04.837Z,58.92
2016-05-23T05:26:04.918Z,58.92
2016-05-23T05:27:04.968Z,58.63
2016-05-23T05:28:05.002Z,58.63
2016-05-23T05:29:05.067Z,59.01
2016-05-23T05:30:05.180Z,58.72
2016-05-23T05:31:05.150Z,59.01
2016-05-23T05:32:05.216Z,58.72
2016-05-23T05:33:05.280Z,58.53
2016-05-23T05:34:05.315Z,58.53
2016-05-23T05:35:05.380Z,58.53
2016-05-23T05:36:05.414Z,58.53
2016-05-23T05:37:06.979Z,58.72
2016-05-23T05:38:05.529Z,59.01
2016-05-23T05:39:05.579Z,58.72
2016-05-23T05:40:05.613Z,59.01
2016-05-23T05:41:05.693Z,58.82
2016-05-23T05:42:05.743Z,58.82
2016-05-23T05:43:05.777Z,59.01
2016-05-23T05:44:05.857Z,58.82
2016-05-23T05:45:05.923Z,59.01
2016-05-23T05:46:05.940Z,58.72
2016-05-23T05:47:06.006Z,59.01
2016-05-23T05:48:06.040Z,58.63
2016-05-23T05:49:06.120Z,58.82
2016-05-23T05:50:06.154Z,58.72
2016-05-23T05:51:06.204Z,58.82
2016-05-23T05:52:06.114Z,58.72
2016-05-23T05:53:06.319Z,58.92
2016-05-23T05:54:06.353Z,58.63
2016-05-23T05:55:06.434Z,58.82
2016-05-23T05:56:06.483Z,58.92
2016-05-23T05:57:06.517Z,58.72
2016-05-23T05:58:06.583Z,58.72
2016-05-23T05:59:06.633Z,58.63
2016-05-23T06:00:06.510Z,58.53
2016-05-23T06:01:06.731Z,58.63
2016-05-23T06:02:06.766Z,58.24
2016-05-23T06:03:06.847Z,58.92
2016-05-23T06:04:06.896Z,58.92
2016-05-23T06:05:06.930Z,58.92
2016-05-23T06:06:07.011Z,58.82
2016-05-23T06:07:07.044Z,58.53
2016-05-23T06:08:07.093Z,58.63
2016-05-23T06:09:07.143Z,58.24
2016-05-23T06:10:07.052Z,58.15
2016-05-23T06:11:07.399Z,58.63
2016-05-23T06:12:07.307Z,58.72
2016-05-23T06:13:07.357Z,58.63
2016-05-23T06:14:07.422Z,58.72
2016-05-23T06:15:07.660Z,58.44
2016-05-23T06:16:07.506Z,58.72
2016-05-23T06:17:07.415Z,58.72
2016-05-23T06:18:07.637Z,58.34
2016-05-23T06:19:07.655Z,58.63
2016-05-23T06:20:07.720Z,58.34
2016-05-23T06:21:07.785Z,58.34
2016-05-23T06:22:07.820Z,58.44
2016-05-23T06:23:07.884Z,58.72
2016-05-23T06:24:07.933Z,58.34
2016-05-23T06:25:07.983Z,58.72
2016-05-23T06:26:08.033Z,58.72
2016-05-23T06:27:08.083Z,58.53
2016-05-23T06:28:08.131Z,57.86
2016-05-23T06:29:08.197Z,58.05
2016-05-23T06:30:08.184Z,57.95
2016-05-23T06:31:08.297Z,58.53
2016-05-23T06:32:08.361Z,57.86
2016-05-23T06:33:08.395Z,58.34
2016-05-23T06:34:08.461Z,57.95
2016-05-23T06:35:08.511Z,58.05
2016-05-23T06:36:09.669Z,57.86
2016-05-23T06:37:08.610Z,58.15
2016-05-23T06:38:08.659Z,57.86
2016-05-23T06:39:08.709Z,58.24
2016-05-23T06:40:08.773Z,58.24
2016-05-23T06:41:08.761Z,58.24
2016-05-23T06:42:08.873Z,58.24
2016-05-23T06:43:08.938Z,57.86
2016-05-23T06:44:09.003Z,58.24
2016-05-23T06:45:08.881Z,58.15
2016-05-23T06:46:09.649Z,58.05
2016-05-23T06:47:09.137Z,58.15
2016-05-23T06:48:09.171Z,58.15
2016-05-23T06:49:09.246Z,58.05
2016-05-23T06:50:09.336Z,57.95
2016-05-23T06:51:09.411Z,58.05
2016-05-23T06:52:09.502Z,58.24
2016-05-23T06:53:09.561Z,58.05
2016-05-23T06:54:09.494Z,58.05
2016-05-23T06:55:09.693Z,57.86
2016-05-23T06:56:09.752Z,57.86
2016-05-23T06:57:09.828Z,58.05
2016-05-23T06:58:09.729Z,58.05
2016-05-23T06:59:09.923Z,57.86
2016-05-23T07:00:10.287Z,58.05
2016-05-23T07:01:10.060Z,58.05
2016-05-23T07:02:10.080Z,58.05
2016-05-23T07:03:10.149Z,58.05
2016-05-23T07:04:10.200Z,58.15
2016-05-23T07:05:10.266Z,58.05
2016-05-23T07:06:10.316Z,58.05
2016-05-23T07:07:10.383Z,58.05
2016-05-23T07:08:10.433Z,58.05
2016-05-23T07:09:10.468Z,57.95
2016-05-23T07:10:10.518Z,58.24
2016-05-23T07:11:10.584Z,57.83
2016-05-23T07:12:10.617Z,58.05
2016-05-23T07:13:10.683Z,58.05
2016-05-23T07:14:10.734Z,58.05
2016-05-23T07:15:10.784Z,58.12
2016-05-23T07:16:10.832Z,57.95
2016-05-23T07:17:10.899Z,58.05
2016-05-23T07:18:10.964Z,57.95
2016-05-23T07:19:11.013Z,58.53
2016-05-23T07:20:11.048Z,58.31
2016-05-23T07:21:11.113Z,58.53
2016-05-23T07:22:11.007Z,58.72
2016-05-23T07:23:11.197Z,58.79
2016-05-23T07:24:11.246Z,58.89
2016-05-23T07:25:11.312Z,58.89
2016-05-23T07:26:11.345Z,58.5
2016-05-23T07:27:11.410Z,58.4
2016-05-23T07:28:11.475Z,58.63
2016-05-23T07:29:11.353Z,58.5
2016-05-23T07:30:11.700Z,58.89
2016-05-23T07:31:11.609Z,58.72
2016-05-23T07:32:11.673Z,58.6
2016-05-23T07:33:11.723Z,58.5
2016-05-23T07:34:11.772Z,58.5
2016-05-23T07:35:11.823Z,58.53
2016-05-23T07:36:11.887Z,58.6
2016-05-23T07:37:11.937Z,58.6
2016-05-23T07:38:11.972Z,58.53
2016-05-23T07:39:12.053Z,58.34
2016-05-23T07:40:12.102Z,58.89
2016-05-23T07:41:12.151Z,58.7
2016-05-23T07:42:12.200Z,58.6
2016-05-23T07:43:12.235Z,58.63
2016-05-23T07:44:12.596Z,58.72
2016-05-23T07:45:12.366Z,58.4
2016-05-23T07:46:15.196Z,58.63
2016-05-23T07:47:12.463Z,58.4
2016-05-23T07:48:12.529Z,58.5
2016-05-23T07:49:12.547Z,58.7
2016-05-23T07:50:12.612Z,58.4
2016-05-23T07:51:12.678Z,58.4
2016-05-23T07:52:12.727Z,58.44
2016-05-23T07:53:12.762Z,58.6
2016-05-23T07:54:12.826Z,58.5
2016-05-23T07:55:12.860Z,59.2
2016-05-23T07:56:12.770Z,58.5
2016-05-23T07:57:12.976Z,58.63
2016-05-23T07:58:13.040Z,58.4
2016-05-23T07:59:13.215Z,58.53
2016-05-23T08:00:13.280Z,58.72
2016-05-23T08:01:13.190Z,58.7
2016-05-23T08:02:13.254Z,58.72
2016-05-23T08:03:13.273Z,58.72
2016-05-23T08:04:13.337Z,59.11
2016-05-23T08:05:13.403Z,58.7
2016-05-23T08:06:13.437Z,58.72
2016-05-23T08:07:13.487Z,58.63
2016-05-23T08:08:13.552Z,58.79
2016-05-23T08:09:13.586Z,58.72
2016-05-23T08:10:13.495Z,58.72
2016-05-23T08:11:16.217Z,58.89
2016-05-23T08:12:13.750Z,58.53
2016-05-23T08:13:13.816Z,58.63
2016-05-23T08:14:14.319Z,58.6
2016-05-23T08:15:14.305Z,58.63
2016-05-23T08:16:13.979Z,58.63
2016-05-23T08:17:13.872Z,58.6
2016-05-23T08:18:14.063Z,58.5
2016-05-23T08:19:14.128Z,57.83
2016-05-23T08:20:14.194Z,58.79
2016-05-23T08:21:15.337Z,58.7
2016-05-23T08:22:14.293Z,58.22
2016-05-23T08:23:14.170Z,58.31
2016-05-23T08:24:14.391Z,58.24
2016-05-23T08:25:14.440Z,57.83
2016-05-23T08:26:14.476Z,58.12
2016-05-23T08:27:14.384Z,58.7
2016-05-23T08:28:14.606Z,58.15
2016-05-23T08:29:14.701Z,57.76
2016-05-23T08:30:14.548Z,58.4
2016-05-23T08:31:14.817Z,57.95
2016-05-23T08:32:14.804Z,57.73
2016-05-23T08:33:14.853Z,58.05
2016-05-23T08:34:14.887Z,57.95
2016-05-23T08:35:14.968Z,58.44
2016-05-23T08:36:15.018Z,58.31
2016-05-23T08:37:14.895Z,58.12
2016-05-23T08:38:15.133Z,58.12
2016-05-23T08:39:15.182Z,58.31
2016-05-23T08:40:15.216Z,57.95
2016-05-23T08:41:15.266Z,58.02
2016-05-23T08:42:15.361Z,58.12
2016-05-23T08:43:15.364Z,58.22
2016-05-23T08:44:15.930Z,58.22
2016-05-23T08:45:15.495Z,58.02
2016-05-23T08:46:17.608Z,58.22
2016-05-23T08:47:15.594Z,58.22
2016-05-23T08:48:15.644Z,58.15
2016-05-23T08:49:15.694Z,58.12
2016-05-23T08:50:15.727Z,57.92
2016-05-23T08:51:15.792Z,58.02
2016-05-23T08:52:15.857Z,57.92
2016-05-23T08:53:15.891Z,58.24
2016-05-23T08:54:15.957Z,57.83
2016-05-23T08:55:15.850Z,57.67
2016-05-23T08:56:16.947Z,57.57
2016-05-23T08:57:16.105Z,57.47
2016-05-23T08:58:16.155Z,57.83
2016-05-23T08:59:16.204Z,57.18
2016-05-23T09:00:16.270Z,58.05
2016-05-23T09:01:16.304Z,58.02
2016-05-23T09:02:16.384Z,58.12
2016-05-23T09:03:16.418Z,57.54
2016-05-23T09:04:16.453Z,57.45
2016-05-23T09:05:16.518Z,57.83
2016-05-23T09:06:16.583Z,57.37
2016-05-23T09:07:16.617Z,57.67
2016-05-23T09:08:16.667Z,57.45
2016-05-23T09:09:16.747Z,57.64
2016-05-23T09:10:16.765Z,57.57
2016-05-23T09:11:16.814Z,57.54
2016-05-23T09:12:16.724Z,57.18
2016-05-23T09:13:16.930Z,57.64
2016-05-23T09:14:17.667Z,56.87
2016-05-23T09:15:17.029Z,57.18
2016-05-23T09:16:17.078Z,57.28
2016-05-23T09:17:17.003Z,57.06
2016-05-23T09:18:17.178Z,56.8
2016-05-23T09:19:17.244Z,56.99
2016-05-23T09:20:17.308Z,57.18
2016-05-23T09:21:17.186Z,57.06
2016-05-23T09:22:17.391Z,56.87
2016-05-23T09:23:17.472Z,57.15
2016-05-23T09:24:17.709Z,56.99
2016-05-23T09:25:17.743Z,57.18
2016-05-23T09:26:17.621Z,56.77
2016-05-23T09:27:17.655Z,56.77
2016-05-23T09:28:17.735Z,56.6
2016-05-23T09:29:18.160Z,56.67
2016-05-23T09:30:17.663Z,56.58
2016-05-23T09:31:17.884Z,56.7
2016-05-23T09:32:17.778Z,56.87
2016-05-23T09:33:17.968Z,56.67
2016-05-23T09:34:18.033Z,56.67
2016-05-23T09:35:18.082Z,56.29
2016-05-23T09:36:17.960Z,56.67
2016-05-23T09:37:18.181Z,56.8
2016-05-23T09:38:18.231Z,56.29
2016-05-23T09:39:18.297Z,56
2016-05-23T09:40:18.361Z,56.2
2016-05-23T09:41:18.380Z,56.22
2016-05-23T09:42:18.445Z,56.03
2016-05-23T09:43:18.354Z,56.1
2016-05-23T09:44:18.389Z,56.2
2016-05-23T09:45:18.438Z,56
2016-05-23T09:46:18.659Z,55.93
2016-05-23T09:47:18.708Z,56.03
2016-05-23T09:48:18.743Z,56.29
2016-05-23T09:49:18.824Z,56
2016-05-23T09:50:18.857Z,56
2016-05-23T09:51:18.922Z,56
2016-05-23T09:52:18.957Z,56
2016-05-23T09:53:18.866Z,56.1
2016-05-23T09:54:19.087Z,56
2016-05-23T09:55:19.105Z,55.9
2016-05-23T09:56:19.014Z,56
2016-05-23T09:57:19.235Z,55.71
2016-05-23T09:58:19.269Z,55.81
2016-05-23T09:59:19.179Z,55.71
2016-05-23T10:00:19.229Z,56.29
2016-05-23T10:01:19.434Z,56.03
2016-05-23T10:02:19.468Z,55.62
2016-05-23T10:03:19.549Z,55.71
2016-05-23T10:04:19.427Z,55.62
2016-05-23T10:05:19.648Z,55.81
2016-05-23T10:06:19.682Z,55.71
2016-05-23T10:07:19.731Z,56
2016-05-23T10:08:19.812Z,56
2016-05-23T10:09:19.845Z,55.9
2016-05-23T10:10:19.880Z,56.2
2016-05-23T10:11:19.961Z,55.52
2016-05-23T10:12:20.011Z,56
2016-05-23T10:13:20.044Z,55.9
2016-05-23T10:14:20.281Z,56
2016-05-23T10:15:20.175Z,56
2016-05-23T10:16:20.209Z,56.1
2016-05-23T10:17:20.274Z,55.9
2016-05-23T10:18:20.151Z,56.1
2016-05-23T10:19:20.373Z,56.29
2016-05-23T10:20:20.438Z,55.62
2016-05-23T10:21:20.456Z,56
2016-05-23T10:22:20.537Z,56.1
2016-05-23T10:23:20.586Z,55.52
2016-05-23T10:24:20.621Z,56
2016-05-23T10:25:20.514Z,56
2016-05-23T10:26:20.735Z,55.9
2016-05-23T10:27:20.769Z,55.62
2016-05-23T10:28:20.819Z,55.23
2016-05-23T10:29:21.010Z,55.43
2016-05-23T10:30:21.074Z,56
2016-05-23T10:31:20.983Z,55.62
2016-05-23T10:32:21.049Z,55.71
2016-05-23T10:33:21.099Z,55.81
2016-05-23T10:34:21.131Z,55.43
2016-05-23T10:35:21.212Z,55.62
2016-05-23T10:36:21.262Z,55.62
2016-05-23T10:37:21.296Z,55.62
2016-05-23T10:38:21.205Z,55.62
2016-05-23T10:39:21.442Z,55.71
2016-05-23T10:40:21.492Z,55.81
2016-05-23T10:41:21.510Z,55.33
2016-05-23T10:42:21.559Z,55.33
2016-05-23T10:43:21.625Z,55.62
2016-05-23T10:44:21.674Z,55.9
2016-05-23T10:45:21.864Z,55.62
2016-05-23T10:46:21.617Z,55.52
2016-05-23T10:47:21.839Z,55.33
2016-05-23T10:48:21.857Z,55.33
2016-05-23T10:49:21.922Z,55.33
2016-05-23T10:50:21.988Z,54.65
2016-05-23T10:51:22.022Z,55.33
2016-05-23T10:52:22.071Z,55.04
2016-05-23T10:53:22.136Z,55.13
2016-05-23T10:54:22.186Z,54.75
2016-05-23T10:55:22.252Z,55.13
2016-05-23T10:56:22.285Z,54.75
2016-05-23T10:57:22.177Z,54.94
2016-05-23T10:58:22.399Z,54.75
2016-05-23T10:59:22.449Z,54.94
2016-05-23T11:00:22.483Z,55.04
2016-05-23T11:01:22.563Z,54.85
2016-05-23T11:02:22.598Z,54.94
2016-05-23T11:03:22.648Z,55.23
2016-05-23T11:04:22.729Z,55.13
2016-05-23T11:05:22.778Z,55.23
2016-05-23T11:06:22.812Z,55.04
2016-05-23T11:07:22.893Z,54.75
2016-05-23T11:08:22.912Z,54.85
2016-05-23T11:09:22.976Z,55.23
2016-05-23T11:10:22.885Z,54.65
2016-05-23T11:11:23.059Z,54.85
2016-05-23T11:12:23.125Z,55.04
2016-05-23T11:13:23.175Z,54.85
2016-05-23T11:14:23.208Z,54.65
2016-05-23T11:15:23.305Z,54.75
2016-05-23T11:16:23.339Z,55.04
2016-05-23T11:17:23.373Z,55.04
2016-05-23T11:18:23.470Z,54.85
2016-05-23T11:19:23.503Z,54.94
2016-05-23T11:20:23.537Z,55.04
2016-05-23T11:21:23.602Z,54.94
2016-05-23T11:22:23.636Z,54.85
2016-05-23T11:23:23.702Z,54.94
2016-05-23T11:24:23.766Z,54.65
2016-05-23T11:25:23.785Z,54.56
2016-05-23T11:26:23.850Z,54.75
2016-05-23T11:27:23.916Z,54.85
2016-05-23T11:28:23.933Z,54.56
2016-05-23T11:29:24.405Z,54.65
2016-05-23T11:30:24.064Z,54.65
2016-05-23T11:31:24.098Z,54.65
2016-05-23T11:32:24.147Z,54.36
2016-05-23T11:33:24.213Z,54.46
2016-05-23T11:34:24.122Z,54.36
2016-05-23T11:35:24.327Z,54.56
2016-05-23T11:36:24.362Z,54.56
2016-05-23T11:37:24.427Z,54.65
2016-05-23T11:38:24.492Z,54.94
2016-05-23T11:39:24.510Z,54.56
2016-05-23T11:40:24.575Z,54.94
2016-05-23T11:41:24.484Z,54.65
2016-05-23T11:42:24.674Z,54.56
2016-05-23T11:43:24.567Z,54.65
2016-05-23T11:44:24.789Z,54.85
2016-05-23T11:45:24.839Z,54.94
2016-05-23T11:46:24.903Z,54.17
2016-05-23T11:47:24.922Z,54.85
2016-05-23T11:48:24.987Z,54.27
2016-05-23T11:49:25.052Z,54.56
2016-05-23T11:50:25.086Z,54.17
2016-05-23T11:51:25.136Z,54.36
2016-05-23T11:52:25.201Z,54.27
2016-05-23T11:53:25.251Z,54.36
2016-05-23T11:54:25.285Z,54.46
2016-05-23T11:55:25.381Z,54.27
2016-05-23T11:56:25.415Z,54.46
2016-05-23T11:57:25.464Z,54.17
2016-05-23T11:58:25.530Z,54.46
2016-05-23T11:59:25.814Z,53.98
2016-05-23T12:00:25.473Z,53.78
2016-05-23T12:01:25.678Z,54.56
2016-05-23T12:02:25.712Z,54.46
2016-05-23T12:03:25.777Z,53.78
2016-05-23T12:04:25.843Z,54.56
2016-05-23T12:05:25.861Z,54.56
2016-05-23T12:06:25.943Z,54.56
2016-05-23T12:07:25.991Z,53.98
2016-05-23T12:08:26.010Z,53.59
2016-05-23T12:09:25.919Z,53.59
2016-05-23T12:10:26.141Z,54.17
2016-05-23T12:11:26.174Z,54.75
2016-05-23T12:12:26.083Z,54.36
2016-05-23T12:13:26.289Z,54.36
2016-05-23T12:14:26.370Z,53.88
2016-05-23T12:15:26.373Z,53.88
2016-05-23T12:16:26.453Z,53.88
2016-05-23T12:17:26.331Z,54.75
2016-05-23T12:18:26.536Z,53.88
2016-05-23T12:19:26.617Z,54.08
2016-05-23T12:20:26.651Z,53.98
2016-05-23T12:21:26.545Z,54.08
2016-05-23T12:22:26.767Z,53.59
2016-05-23T12:23:26.831Z,53.78
2016-05-23T12:24:26.694Z,53.78
2016-05-23T12:25:26.930Z,54.75
2016-05-23T12:26:26.964Z,54.08
2016-05-23T12:27:27.030Z,54.27
2016-05-23T12:28:27.080Z,53.5
2016-05-23T12:29:27.113Z,54.85
2016-05-23T12:30:27.178Z,54.17
2016-05-23T12:31:27.228Z,53.78
2016-05-23T12:32:27.262Z,53.88
2016-05-23T12:33:27.327Z,53.98
2016-05-23T12:34:27.392Z,53.98
2016-05-23T12:35:27.270Z,53.4
2016-05-23T12:36:27.476Z,53.59
2016-05-23T12:37:27.557Z,53.88
2016-05-23T12:38:27.700Z,53.59
2016-05-23T12:39:27.656Z,54.08
2016-05-23T12:40:27.673Z,53.5
2016-05-23T12:41:27.739Z,53.59
2016-05-23T12:42:27.804Z,54.17
2016-05-23T12:43:27.776Z,54.17
2016-05-23T12:44:28.248Z,53.4
2016-05-23T12:45:27.968Z,53.69
2016-05-23T12:46:28.003Z,54.17
2016-05-23T12:47:28.053Z,53.4
2016-05-23T12:48:28.165Z,53.98
2016-05-23T12:49:28.323Z,53.88
2016-05-23T12:50:28.231Z,53.78
2016-05-23T12:51:28.251Z,53.59
2016-05-23T12:52:28.316Z,53.5
2016-05-23T12:53:28.865Z,53.69
2016-05-23T12:54:28.400Z,53.78
2016-05-23T12:55:28.464Z,53.4
2016-05-23T12:56:28.372Z,53.59
2016-05-23T12:57:28.563Z,53.88
2016-05-23T12:58:28.613Z,53.21